Morrinhos, Brazil
Current Conditions -  °F | °C
As of 9:00 AM on Tuesday 27 Jan 2015 (Local Time) from SBFZ Reporting Station
Broken Clouds Broken Clouds  
Wind Chill: 84°   Ceiling: 2000
Heat Index: 88°   Visibility: 6mi
Dew Point: 70°   Wind: 15mph
Humidity: 62%   Direction: 120°ESE
Pressure: 29.91"   Gusts: NA
Location:  3.23°S, 40.12°W
Report Text: SBFZ 271200Z 12013KT 9999 BKN020 29/21 Q1013
Loading
Personal Weather Stations






























Interactive Weather Map New forecast layout! Learn more

10-Day Weather Forecast

Advertisements
Track Severe Weather on mobile